Time;durP1;ratioP1;P1;durP2;ratioP2;P2;SDS_P1;SDS_P2;PMS_P1;PMS_P2;Temp;Humidity;BMP_temperature;BMP_pressure;BME280_temperature;BME280_humidity;BME280_pressure;Samples;Min_cycle;Max_cycle;Signal;HPM_P1;HPM_P2
2023/09/07 00:00:12;;;;;;;4.30;3.20;;;;;;;17.03;100.00;102260.66;5009074;28;20200;-47
2023/09/07 00:02:40;;;;;;;3.67;3.38;;;;;;;17.00;100.00;102252.69;4994496;28;20215;-52
2023/09/07 00:05:08;;;;;;;3.60;3.28;;;;;;;16.87;100.00;102260.44;4990735;28;20284;-52
2023/09/07 00:07:35;;;;;;;3.53;3.22;;;;;;;16.96;100.00;102259.16;4998914;28;20683;-50
2023/09/07 00:10:01;;;;;;;3.95;3.50;;;;;;;16.84;100.00;102266.88;4993406;28;20188;-51
2023/09/07 00:12:27;;;;;;;3.20;2.95;;;;;;;16.85;100.00;102260.50;4994464;28;20200;-53
2023/09/07 00:14:54;;;;;;;3.45;3.25;;;;;;;16.69;100.00;102273.75;4994207;28;20178;-55
2023/09/07 00:17:20;;;;;;;4.25;2.88;;;;;;;16.74;100.00;102272.69;4998353;28;20185;-51
2023/09/07 00:19:48;;;;;;;3.30;3.05;;;;;;;16.64;100.00;102280.31;4996464;28;20276;-51
2023/09/07 00:22:13;;;;;;;7.47;3.70;;;;;;;16.63;100.00;102273.13;4997681;28;20231;-51
2023/09/07 00:24:39;;;;;;;3.63;2.92;;;;;;;16.65;100.00;102274.81;4992439;28;20188;-48
2023/09/07 00:27:06;;;;;;;2.78;2.58;;;;;;;16.67;100.00;102277.47;4998467;28;20575;-48
2023/09/07 00:29:31;;;;;;;3.50;2.45;;;;;;;16.67;100.00;102272.06;5001232;28;20174;-48
2023/09/07 00:31:57;;;;;;;3.42;3.13;;;;;;;16.52;100.00;102275.38;5004599;28;20276;-48
2023/09/07 00:34:22;;;;;;;3.78;3.35;;;;;;;16.48;100.00;102261.97;5002071;28;20647;-49
2023/09/07 00:36:48;;;;;;;3.55;3.00;;;;;;;16.54;100.00;102271.66;4999502;28;20177;-49
2023/09/07 00:39:13;;;;;;;2.95;2.75;;;;;;;16.55;100.00;102265.34;5000242;28;20297;-49
2023/09/07 00:41:39;;;;;;;3.05;2.85;;;;;;;16.50;100.00;102269.16;4995173;28;20213;-50
2023/09/07 00:44:04;;;;;;;3.15;2.95;;;;;;;16.44;100.00;102267.56;5003657;28;20177;-49
2023/09/07 00:46:30;;;;;;;3.42;3.13;;;;;;;16.47;100.00;102264.75;4995033;28;20671;-50
2023/09/07 00:48:57;;;;;;;3.65;3.35;;;;;;;16.32;100.00;102259.94;4989329;28;20185;-48
2023/09/07 00:51:22;;;;;;;3.40;3.08;;;;;;;16.22;100.00;102262.13;5005077;28;20201;-48
2023/09/07 00:53:49;;;;;;;3.00;2.80;;;;;;;16.26;100.00;102258.34;4996977;28;20239;-47
2023/09/07 00:56:16;;;;;;;2.92;2.55;;;;;;;16.32;100.00;102268.06;4998933;28;20189;-48
2023/09/07 00:58:42;;;;;;;3.13;2.92;;;;;;;16.32;100.00;102259.94;4996656;28;20169;-51
2023/09/07 01:01:08;;;;;;;4.13;3.50;;;;;;;16.32;100.00;102266.22;5000245;28;20429;-53
2023/09/07 01:03:34;;;;;;;3.47;3.28;;;;;;;16.39;100.00;102258.75;4996031;28;20236;-51
2023/09/07 01:06:22;;;;;;;4.78;4.00;;;;;;;16.28;100.00;102267.28;4999618;28;20555;-51
2023/09/07 01:08:54;;;;;;;3.50;3.20;;;;;;;16.34;100.00;102269.75;4992485;28;20197;-47
2023/09/07 01:11:22;;;;;;;3.58;3.28;;;;;;;16.25;100.00;102270.13;5003688;28;20212;-49
2023/09/07 01:13:51;;;;;;;3.35;3.05;;;;;;;16.25;100.00;102262.00;5000351;28;20177;-49
2023/09/07 01:16:17;;;;;;;3.70;3.40;;;;;;;16.17;100.00;102272.25;4997299;28;20240;-49
2023/09/07 01:18:44;;;;;;;3.20;2.90;;;;;;;16.20;100.00;102266.69;4997862;28;20178;-47
2023/09/07 01:21:11;;;;;;;4.10;3.70;;;;;;;16.16;100.00;102262.34;4995365;28;20689;-46
2023/09/07 01:23:39;;;;;;;3.58;3.15;;;;;;;16.15;100.00;102269.59;4996316;28;20181;-49
2023/09/07 01:26:19;;;;;;;4.28;3.80;;;;;;;15.90;100.00;102269.66;5001664;28;20271;-48
2023/09/07 01:28:44;;;;;;;4.40;3.40;;;;;;;15.83;100.00;102263.59;4994852;28;20659;-49
2023/09/07 01:31:10;;;;;;;4.00;3.47;;;;;;;15.83;100.00;102265.41;4993559;28;20228;-49
2023/09/07 01:33:36;;;;;;;3.65;3.38;;;;;;;15.92;100.00;102270.47;4999818;28;20188;-48
2023/09/07 01:36:01;;;;;;;4.13;3.83;;;;;;;15.81;100.00;102273.59;4996671;28;20227;-49
2023/09/07 01:38:27;;;;;;;3.90;3.60;;;;;;;15.78;100.00;102259.28;4997297;28;20663;-49
2023/09/07 01:40:52;;;;;;;6.47;4.10;;;;;;;15.68;100.00;102264.13;5005338;28;20212;-46
2023/09/07 01:43:19;;;;;;;5.72;3.88;;;;;;;15.57;100.00;102253.72;5001465;28;20176;-47
2023/09/07 01:45:45;;;;;;;3.22;3.03;;;;;;;15.59;100.00;102265.34;4999414;28;20430;-47
2023/09/07 01:48:13;;;;;;;4.07;3.78;;;;;;;15.70;100.00;102275.78;4995372;28;20193;-46
2023/09/07 01:50:39;;;;;;;3.60;3.20;;;;;;;15.77;100.00;102279.16;4996499;28;20205;-46
2023/09/07 01:53:05;;;;;;;3.83;3.58;;;;;;;15.85;100.00;102271.63;4999947;28;20627;-46
2023/09/07 01:55:31;;;;;;;4.47;4.07;;;;;;;15.79;100.00;102271.88;4997235;28;20231;-47
2023/09/07 01:57:58;;;;;;;4.20;3.80;;;;;;;15.67;100.00;102275.88;4997016;28;20185;-47
2023/09/07 02:00:25;;;;;;;4.47;3.53;;;;;;;15.71;100.00;102279.34;5004068;28;20215;-46
2023/09/07 02:06:37;;;;;;;4.95;4.05;;;;;;;15.70;100.00;102274.88;4997591;28;20277;-46
2023/09/07 02:09:04;;;;;;;4.20;3.83;;;;;;;15.66;100.00;102282.22;5002204;28;20252;-45
2023/09/07 02:11:29;;;;;;;4.90;4.00;;;;;;;15.74;100.00;102285.56;4996899;28;20644;-46
2023/09/07 02:13:55;;;;;;;3.90;3.53;;;;;;;15.78;100.00;102286.31;4999809;28;20272;-46
2023/09/07 02:16:20;;;;;;;4.03;3.70;;;;;;;15.71;100.00;102287.44;4995670;28;20275;-44
2023/09/07 02:18:50;;;;;;;4.70;3.92;;;;;;;15.63;100.00;102290.41;4996150;28;20288;-46
2023/09/07 02:21:15;;;;;;;3.88;3.38;;;;;;;15.73;100.00;102281.09;4993535;28;20200;-45
2023/09/07 02:23:42;;;;;;;4.80;3.92;;;;;;;15.58;100.00;102285.19;4992900;28;20177;-47
2023/09/07 02:26:08;;;;;;;7.55;4.15;;;;;;;15.50;100.00;102278.28;4996340;28;20615;-47
2023/09/07 02:28:33;;;;;;;4.35;4.05;;;;;;;15.47;100.00;102286.50;4996170;28;20177;-46
2023/09/07 02:31:06;;;;;;;3.60;3.40;;;;;;;15.52;100.00;102288.09;5005668;28;20236;-48
2023/09/07 02:33:32;;;;;;;6.57;3.70;;;;;;;15.53;100.00;102289.88;5013979;28;20566;-47
2023/09/07 02:35:58;;;;;;;4.15;3.47;;;;;;;15.54;100.00;102279.94;5002171;28;20209;-45
2023/09/07 02:38:24;;;;;;;3.42;3.20;;;;;;;15.59;100.00;102277.94;5005239;28;20607;-44
2023/09/07 02:40:50;;;;;;;4.07;3.78;;;;;;;15.44;100.00;102282.97;4998859;28;20209;-48
2023/09/07 02:43:16;;;;;;;3.80;3.50;;;;;;;15.43;100.00;102278.50;4984946;28;20196;-47
2023/09/07 02:45:42;;;;;;;4.13;3.40;;;;;;;15.45;100.00;102289.25;4985351;28;20259;-45
2023/09/07 02:48:07;;;;;;;3.40;3.08;;;;;;;15.44;100.00;102276.72;5005694;28;20194;-45
2023/09/07 02:50:35;;;;;;;3.55;3.25;;;;;;;15.48;100.00;102281.06;5004784;28;20492;-47
2023/09/07 02:53:01;;;;;;;4.15;3.00;;;;;;;15.46;100.00;102282.94;5001391;28;20206;-47
2023/09/07 02:55:28;;;;;;;3.50;3.20;;;;;;;15.40;100.00;102280.44;4996166;28;20178;-48
2023/09/07 02:57:55;;;;;;;3.42;3.20;;;;;;;15.37;100.00;102289.53;5003716;28;20200;-45
2023/09/07 03:00:21;;;;;;;3.90;3.30;;;;;;;15.19;100.00;102292.88;5012433;28;20205;-44
2023/09/07 03:02:48;;;;;;;3.17;2.97;;;;;;;15.17;100.00;102297.44;5002816;28;20238;-47
2023/09/07 03:05:14;;;;;;;3.15;2.83;;;;;;;15.27;100.00;102295.31;5012768;28;20201;-47
2023/09/07 03:07:40;;;;;;;4.43;3.05;;;;;;;15.22;100.00;102290.94;5006945;28;20184;-49
2023/09/07 03:10:06;;;;;;;3.17;2.95;;;;;;;15.20;100.00;102295.53;5005201;28;20196;-47
2023/09/07 03:12:33;;;;;;;3.47;3.17;;;;;;;15.27;100.00;102298.03;5003974;28;20173;-47
2023/09/07 03:15:03;;;;;;;2.92;2.72;;;;;;;15.29;100.00;102305.13;5002529;28;20181;-45
2023/09/07 03:17:29;;;;;;;3.22;2.90;;;;;;;15.26;100.00;102302.50;5005830;28;20263;-46
2023/09/07 03:19:55;;;;;;;3.28;3.03;;;;;;;15.17;100.00;102297.44;4998846;28;20716;-45
2023/09/07 03:22:21;;;;;;;3.28;3.03;;;;;;;15.19;100.00;102303.66;5017091;28;20165;-45
2023/09/07 03:24:49;;;;;;;3.00;2.80;;;;;;;15.17;100.00;102309.09;4997095;28;20181;-46
2023/09/07 03:27:14;;;;;;;3.13;2.78;;;;;;;15.21;100.00;102307.19;5003988;28;20189;-47
2023/09/07 03:29:41;;;;;;;4.35;3.35;;;;;;;15.11;100.00;102301.25;5005964;28;20184;-48
2023/09/07 03:32:08;;;;;;;3.30;3.00;;;;;;;15.11;100.00;102311.13;5001562;28;20189;-48
2023/09/07 03:34:34;;;;;;;3.53;3.10;;;;;;;15.11;100.00;102295.84;4996878;28;20231;-46
2023/09/07 03:36:59;;;;;;;3.38;3.17;;;;;;;15.05;100.00;102309.53;4997347;28;20174;-47
2023/09/07 03:39:25;;;;;;;3.17;2.58;;;;;;;15.07;100.00;102307.66;4994012;28;20172;-48
2023/09/07 03:41:52;;;;;;;3.45;3.08;;;;;;;15.08;100.00;102303.16;5008086;28;20197;-46
2023/09/07 03:44:17;;;;;;;3.38;2.97;;;;;;;15.04;100.00;102315.84;4999623;28;21012;-48
2023/09/07 03:46:44;;;;;;;3.00;2.80;;;;;;;15.04;100.00;102310.44;5006466;28;20208;-47
2023/09/07 03:49:10;;;;;;;3.67;3.15;;;;;;;15.03;100.00;102308.69;4998392;28;20180;-46
2023/09/07 03:51:36;;;;;;;2.80;2.60;;;;;;;15.04;100.00;102308.66;4996589;28;20200;-47
2023/09/07 03:54:02;;;;;;;3.38;3.00;;;;;;;15.03;100.00;102311.41;4998652;28;20520;-48
2023/09/07 03:56:27;;;;;;;3.10;2.90;;;;;;;14.98;100.00;102306.16;5006231;28;20184;-47
2023/09/07 03:58:53;;;;;;;3.10;2.90;;;;;;;14.89;100.00;102314.56;4998159;28;20314;-46
2023/09/07 04:01:18;;;;;;;3.88;3.55;;;;;;;14.82;100.00;102308.47;4999641;28;20223;-46
2023/09/07 04:03:44;;;;;;;3.40;3.10;;;;;;;14.69;100.00;102309.78;5004785;28;20223;-46
2023/09/07 04:06:10;;;;;;;3.60;3.33;;;;;;;14.73;100.00;102310.56;5002888;28;20246;-46
2023/09/07 04:08:36;;;;;;;2.72;2.53;;;;;;;14.80;100.00;102313.06;5005915;28;20215;-47
2023/09/07 04:11:05;;;;;;;3.10;2.90;;;;;;;14.79;100.00;102315.78;4997900;28;20281;-45
2023/09/07 04:13:31;;;;;;;2.90;2.70;;;;;;;14.81;100.00;102317.50;4996788;28;20185;-46
2023/09/07 04:15:57;;;;;;;3.60;3.30;;;;;;;14.78;100.00;102322.09;5002838;28;20181;-46
2023/09/07 04:18:22;;;;;;;3.00;2.80;;;;;;;14.76;100.00;102324.88;4999714;28;20557;-47
2023/09/07 04:20:48;;;;;;;2.88;2.67;;;;;;;14.76;100.00;102324.00;5003357;28;20197;-46
2023/09/07 04:23:14;;;;;;;3.15;2.88;;;;;;;14.73;100.00;102324.06;5000032;28;20178;-47
2023/09/07 04:25:40;;;;;;;3.08;2.88;;;;;;;14.70;100.00;102324.19;4995886;28;20266;-48
2023/09/07 04:28:07;;;;;;;5.15;3.30;;;;;;;14.56;100.00;102325.50;4999789;28;20491;-47
2023/09/07 04:30:39;;;;;;;3.00;2.72;;;;;;;14.60;100.00;102310.06;4995662;28;20199;-48
2023/09/07 04:33:05;;;;;;;2.88;2.67;;;;;;;14.61;100.00;102323.53;4994045;28;20400;-46
2023/09/07 04:35:32;;;;;;;3.42;3.13;;;;;;;14.64;100.00;102314.44;4998390;28;20771;-46
2023/09/07 04:37:59;;;;;;;3.45;3.15;;;;;;;14.65;100.00;102327.03;4999620;28;20275;-47
2023/09/07 04:40:25;;;;;;;3.33;3.13;;;;;;;14.61;100.00;102331.63;4997324;28;20193;-46
2023/09/07 04:42:51;;;;;;;3.70;3.40;;;;;;;14.54;100.00;102332.72;4995456;28;20185;-47
2023/09/07 04:45:17;;;;;;;3.03;2.80;;;;;;;14.59;100.00;102332.59;5001917;28;20263;-48
2023/09/07 04:47:43;;;;;;;5.65;3.45;;;;;;;14.55;100.00;102329.09;5005202;28;20195;-46
2023/09/07 04:50:09;;;;;;;4.68;4.28;;;;;;;14.50;100.00;102340.94;5003377;28;20208;-48
2023/09/07 04:52:35;;;;;;;4.20;3.75;;;;;;;14.53;100.00;102343.53;4997507;28;20267;-46
2023/09/07 04:55:01;;;;;;;4.38;3.90;;;;;;;14.56;100.00;102351.56;4995673;28;20410;-47
2023/09/07 04:57:27;;;;;;;3.72;3.45;;;;;;;14.59;100.00;102346.09;5005365;28;20721;-46
2023/09/07 04:59:52;;;;;;;4.07;3.67;;;;;;;14.60;100.00;102337.06;5003752;28;20204;-46
2023/09/07 05:02:18;;;;;;;4.20;3.80;;;;;;;14.57;100.00;102338.03;5004468;28;20223;-47
2023/09/07 05:04:44;;;;;;;3.47;3.22;;;;;;;14.58;100.00;102347.00;5002056;28;20660;-48
2023/09/07 05:07:10;;;;;;;5.13;3.17;;;;;;;14.63;100.00;102339.69;4997401;28;20184;-47
2023/09/07 05:09:36;;;;;;;3.72;3.42;;;;;;;14.64;100.00;102346.81;4999465;28;20609;-47
2023/09/07 05:12:01;;;;;;;3.60;3.30;;;;;;;14.63;100.00;102353.16;4999452;28;20177;-47
2023/09/07 05:14:27;;;;;;;6.70;4.00;;;;;;;14.52;100.00;102353.47;5002155;28;20185;-48
2023/09/07 05:16:52;;;;;;;4.72;4.32;;;;;;;14.90;100.00;102351.41;4995232;28;20276;-47
2023/09/07 05:19:18;;;;;;;3.60;3.30;;;;;;;15.28;100.00;102351.94;5002674;28;20188;-48
2023/09/07 05:21:45;;;;;;;4.15;3.85;;;;;;;15.40;100.00;102345.28;5003730;28;20635;-46
2023/09/07 05:24:14;;;;;;;4.60;4.18;;;;;;;15.37;100.00;102358.84;4997973;28;20180;-47
2023/09/07 05:26:39;;;;;;;3.65;3.35;;;;;;;15.30;100.00;102355.47;5001712;28;20289;-47
2023/09/07 05:29:06;;;;;;;4.68;4.28;;;;;;;15.43;100.00;102351.44;5002047;28;20172;-46
2023/09/07 05:31:31;;;;;;;5.25;4.72;;;;;;;15.74;100.00;102357.63;4996137;28;20203;-47
2023/09/07 05:33:57;;;;;;;4.70;4.30;;;;;;;15.94;100.00;102354.19;5002623;28;20181;-46
2023/09/07 05:36:22;;;;;;;4.93;4.05;;;;;;;16.23;100.00;102354.00;5002327;28;20172;-48
2023/09/07 05:38:48;;;;;;;4.55;3.65;;;;;;;16.59;100.00;102358.06;4998768;28;20180;-48
2023/09/07 05:41:13;;;;;;;5.30;4.72;;;;;;;16.80;100.00;102345.56;4995115;28;20661;-46
2023/09/07 05:43:39;;;;;;;8.40;7.60;;;;;;;17.02;100.00;102342.84;5000272;28;20191;-47
2023/09/07 05:46:05;;;;;;;8.63;7.30;;;;;;;17.39;100.00;102349.44;4998168;28;20213;-47
2023/09/07 05:48:30;;;;;;;7.50;6.50;;;;;;;17.65;100.00;102346.50;4994913;28;20169;-47
2023/09/07 05:50:56;;;;;;;6.45;5.65;;;;;;;17.89;100.00;102341.84;4997127;28;20295;-47
2023/09/07 05:53:22;;;;;;;7.45;6.75;;;;;;;18.12;100.00;102348.91;5000714;28;20236;-45
2023/09/07 05:55:47;;;;;;;4.82;4.30;;;;;;;18.22;100.00;102345.81;5000614;28;20180;-44
2023/09/07 05:58:14;;;;;;;5.03;4.00;;;;;;;18.38;100.00;102344.13;4997159;28;20181;-48
2023/09/07 06:00:43;;;;;;;8.95;8.05;;;;;;;18.60;100.00;102340.41;4995676;28;20202;-46
2023/09/07 06:03:09;;;;;;;7.43;6.72;;;;;;;18.72;100.00;102342.53;5000421;28;20265;-45
2023/09/07 06:05:36;;;;;;;11.05;8.13;;;;;;;18.88;100.00;102342.69;5005880;28;20679;-46
2023/09/07 06:08:02;;;;;;;7.28;6.55;;;;;;;19.18;100.00;102348.44;5001588;28;20731;-47
2023/09/07 06:10:29;;;;;;;9.52;7.10;;;;;;;19.29;100.00;102342.47;5004342;28;20243;-46
2023/09/07 06:12:56;;;;;;;10.05;6.85;;;;;;;19.55;100.00;102342.00;4997472;28;20184;-47
2023/09/07 06:15:22;;;;;;;10.95;7.00;;;;;;;19.66;100.00;102336.00;5006131;28;20660;-47
2023/09/07 06:17:48;;;;;;;7.65;6.95;;;;;;;19.65;100.00;102334.22;4982031;28;20169;-46
2023/09/07 06:20:13;;;;;;;7.65;6.85;;;;;;;19.82;100.00;102330.66;5004677;28;20204;-47
2023/09/07 06:22:39;;;;;;;7.97;6.85;;;;;;;19.98;100.00;102336.16;5000153;28;20691;-46
2023/09/07 06:25:05;;;;;;;7.15;6.45;;;;;;;20.00;100.00;102339.66;5005336;28;20232;-46
2023/09/07 06:27:30;;;;;;;8.57;7.68;;;;;;;20.10;100.00;102332.78;5004271;28;20605;-45
2023/09/07 06:29:56;;;;;;;8.82;6.90;;;;;;;20.31;99.48;102335.28;5004793;28;20247;-46
2023/09/07 06:32:21;;;;;;;7.25;6.60;;;;;;;20.36;98.27;102330.47;4999488;28;20627;-46
2023/09/07 06:34:47;;;;;;;8.52;6.82;;;;;;;20.65;97.17;102323.41;4998843;28;20249;-47
2023/09/07 06:37:13;;;;;;;8.75;6.55;;;;;;;20.75;95.50;102331.91;5005570;28;20209;-45
2023/09/07 06:39:42;;;;;;;7.38;6.53;;;;;;;21.01;94.83;102335.00;5005165;28;20185;-46
2023/09/07 06:42:10;;;;;;;8.13;6.45;;;;;;;20.88;93.76;102324.81;5001740;28;20246;-44
2023/09/07 06:44:42;;;;;;;6.53;5.93;;;;;;;21.06;93.25;102331.03;4997667;28;20661;-47
2023/09/07 06:47:09;;;;;;;8.65;6.85;;;;;;;20.93;92.43;102330.88;5004166;28;20213;-47
2023/09/07 06:49:37;;;;;;;7.53;6.65;;;;;;;20.85;92.10;102327.69;5000506;28;20204;-48
2023/09/07 06:52:03;;;;;;;6.78;6.13;;;;;;;21.11;91.89;102337.09;5002186;28;20190;-48
2023/09/07 06:54:28;;;;;;;7.97;6.75;;;;;;;21.14;91.25;102325.13;4998688;28;20543;-45
2023/09/07 06:56:54;;;;;;;6.85;6.22;;;;;;;21.58;91.33;102329.78;4999190;28;20176;-46
2023/09/07 06:59:20;;;;;;;11.73;6.82;;;;;;;21.37;89.68;102324.63;5002045;28;20200;-46
2023/09/07 07:01:45;;;;;;;8.02;6.80;;;;;;;21.07;89.01;102330.06;5001519;28;20199;-47
2023/09/07 07:04:11;;;;;;;7.55;6.82;;;;;;;21.10;89.15;102331.72;4997816;28;20183;-48
2023/09/07 07:06:36;;;;;;;7.13;6.18;;;;;;;21.43;89.58;102338.88;4995542;28;20205;-46
2023/09/07 07:09:02;;;;;;;6.75;5.95;;;;;;;21.86;88.62;102336.28;4999366;28;20238;-46
2023/09/07 07:11:28;;;;;;;6.88;6.10;;;;;;;22.21;87.32;102325.88;5000685;28;20295;-47
2023/09/07 07:13:53;;;;;;;7.30;5.60;;;;;;;21.80;86.21;102313.88;5000050;28;20275;-45
2023/09/07 07:16:19;;;;;;;5.93;5.25;;;;;;;22.44;86.11;102329.03;5002164;28;20263;-46
2023/09/07 07:18:45;;;;;;;6.22;5.15;;;;;;;22.41;84.57;102321.88;4996018;28;20180;-48
2023/09/07 07:21:11;;;;;;;6.50;5.78;;;;;;;22.59;83.69;102328.03;5001558;28;20745;-48
2023/09/07 07:23:36;;;;;;;6.93;6.22;;;;;;;22.41;83.02;102328.25;4999513;28;20204;-44
2023/09/07 07:26:02;;;;;;;5.57;5.03;;;;;;;22.79;82.39;102326.72;5009304;28;20218;-43
2023/09/07 07:28:27;;;;;;;7.35;5.63;;;;;;;22.59;81.89;102320.72;5010158;28;20290;-45
2023/09/07 07:30:53;;;;;;;6.68;5.97;;;;;;;22.53;82.22;102326.56;5010030;28;20229;-43
2023/09/07 07:33:20;;;;;;;8.82;5.85;;;;;;;22.84;81.67;102319.09;5007893;28;20184;-42
2023/09/07 07:35:47;;;;;;;8.20;5.70;;;;;;;22.86;80.58;102319.00;5008854;28;20583;-45
2023/09/07 07:38:14;;;;;;;6.13;5.63;;;;;;;22.99;80.59;102312.59;5008547;28;20191;-44
2023/09/07 07:40:42;;;;;;;6.90;5.43;;;;;;;22.90;79.55;102307.75;5016710;28;20215;-42
2023/09/07 07:43:09;;;;;;;5.72;4.63;;;;;;;23.24;79.89;102316.41;5008616;28;20199;-45
2023/09/07 07:45:38;;;;;;;5.35;4.82;;;;;;;23.38;78.59;102302.69;5016673;28;20200;-45
2023/09/07 07:48:05;;;;;;;5.38;4.82;;;;;;;23.23;78.87;102311.94;5016655;28;20191;-45
2023/09/07 07:50:31;;;;;;;6.82;5.32;;;;;;;23.29;78.99;102311.53;5003479;28;20287;-45
2023/09/07 07:52:57;;;;;;;5.30;4.80;;;;;;;23.63;78.46;102311.91;5008397;28;20195;-43
2023/09/07 07:55:23;;;;;;;6.78;5.47;;;;;;;23.20;77.14;102303.97;5024534;28;20626;-42
2023/09/07 07:57:49;;;;;;;7.70;5.50;;;;;;;23.44;76.35;102304.13;5019574;28;20202;-46
2023/09/07 08:00:14;;;;;;;8.02;5.05;;;;;;;23.64;76.41;102309.06;5007842;28;20227;-45
2023/09/07 08:02:44;;;;;;;5.63;5.07;;;;;;;23.69;76.04;102294.19;5022824;28;20223;-43
2023/09/07 08:05:10;;;;;;;5.70;5.20;;;;;;;23.56;75.43;102295.06;5015956;28;20231;-45
2023/09/07 08:07:38;;;;;;;5.82;4.53;;;;;;;24.06;75.05;102289.75;5010852;28;20180;-45
2023/09/07 08:10:04;;;;;;;4.70;4.25;;;;;;;23.92;74.22;102298.06;5007926;28;20665;-43
2023/09/07 08:12:29;;;;;;;6.05;5.28;;;;;;;23.69;74.87;102291.47;5008042;28;20193;-43
2023/09/07 08:14:55;;;;;;;6.82;4.97;;;;;;;23.80;74.28;102288.88;5007909;28;20642;-43
2023/09/07 08:17:21;;;;;;;6.32;4.80;;;;;;;24.16;74.54;102282.63;5010279;28;20173;-43
2023/09/07 08:19:48;;;;;;;7.55;5.03;;;;;;;24.51;73.12;102284.66;5002147;28;20172;-43
2023/09/07 08:22:16;;;;;;;7.72;5.13;;;;;;;24.50;71.91;102280.16;5015967;28;20171;-44
2023/09/07 08:24:44;;;;;;;7.95;5.10;;;;;;;24.50;71.56;102266.44;5017558;28;20526;-44
2023/09/07 08:27:11;;;;;;;6.10;5.18;;;;;;;24.59;72.10;102273.97;5023807;28;20211;-41
2023/09/07 08:29:37;;;;;;;8.20;5.30;;;;;;;24.36;71.51;102264.72;5014628;28;20180;-42
2023/09/07 08:32:04;;;;;;;6.68;5.65;;;;;;;24.43;71.32;102263.25;5017315;28;20606;-45
2023/09/07 08:34:30;;;;;;;6.97;5.68;;;;;;;24.26;71.55;102272.72;5009112;28;20180;-45
2023/09/07 08:36:58;;;;;;;6.25;5.30;;;;;;;24.22;72.42;102275.78;5009262;28;20581;-45
2023/09/07 08:39:24;;;;;;;9.48;5.50;;;;;;;24.58;71.80;102272.25;5027849;28;20725;-46
2023/09/07 08:41:51;;;;;;;6.45;5.70;;;;;;;24.62;70.64;102268.28;5014388;28;20231;-46
2023/09/07 08:44:19;;;;;;;7.15;5.47;;;;;;;24.63;70.40;102269.16;5016757;28;20184;-44
2023/09/07 08:46:45;;;;;;;7.93;5.32;;;;;;;24.70;70.62;102264.09;5014274;28;20688;-45
2023/09/07 08:49:11;;;;;;;6.75;5.05;;;;;;;24.97;70.40;102262.00;5011459;28;20689;-43
2023/09/07 08:51:37;;;;;;;8.25;5.20;;;;;;;25.20;70.11;102262.97;5009982;28;20291;-45
2023/09/07 08:54:08;;;;;;;5.30;4.80;;;;;;;25.44;68.96;102262.06;5008645;28;20206;-43
2023/09/07 08:56:33;;;;;;;5.68;5.00;;;;;;;25.48;69.17;102253.47;5000565;28;20232;-45
2023/09/07 08:58:59;;;;;;;6.10;4.60;;;;;;;25.72;69.31;102260.75;5008263;28;20188;-45
2023/09/07 09:01:25;;;;;;;5.47;4.97;;;;;;;26.10;67.59;102256.78;5008352;28;20235;-45
2023/09/07 09:03:51;;;;;;;5.75;4.95;;;;;;;25.43;67.60;102241.97;5008264;28;20184;-43
2023/09/07 09:06:18;;;;;;;4.90;4.28;;;;;;;25.57;68.08;102254.59;5008195;28;20265;-42
2023/09/07 09:08:53;;;;;;;6.18;4.72;;;;;;;25.58;67.74;102245.38;5008438;28;20198;-44
2023/09/07 09:11:19;;;;;;;6.72;4.63;;;;;;;25.75;67.69;102252.25;5019342;28;20222;-46
2023/09/07 09:13:45;;;;;;;6.28;5.25;;;;;;;25.54;66.65;102237.50;5023466;28;20188;-45
2023/09/07 09:16:12;;;;;;;4.68;4.25;;;;;;;25.93;67.71;102251.81;5017361;28;20254;-42
2023/09/07 09:18:47;;;;;;;6.03;4.07;;;;;;;25.80;67.27;102250.03;5016086;28;20255;-45
2023/09/07 09:21:14;;;;;;;4.93;3.97;;;;;;;25.88;66.42;102243.94;5008608;28;20188;-43
2023/09/07 09:23:40;;;;;;;5.68;4.05;;;;;;;26.25;66.51;102244.53;5008836;28;20180;-43
2023/09/07 09:26:06;;;;;;;6.25;5.18;;;;;;;25.49;67.17;102251.59;5008602;28;20979;-41
2023/09/07 09:28:33;;;;;;;10.38;9.45;;;;;;;24.02;72.58;102286.34;5008617;28;20599;-45
2023/09/07 09:31:00;;;;;;;10.10;9.15;;;;;;;23.83;74.19;102291.38;5012724;28;20191;-44
2023/09/07 09:33:27;;;;;;;12.77;7.82;;;;;;;23.86;76.04;102307.59;5009628;28;20187;-46
2023/09/07 09:35:54;;;;;;;11.13;10.07;;;;;;;23.79;77.39;102304.44;5014799;28;20214;-46
2023/09/07 09:38:20;;;;;;;11.98;10.70;;;;;;;23.56;79.08;102322.41;5017566;28;20282;-47
2023/09/07 09:40:46;;;;;;;13.55;12.25;;;;;;;23.50;79.99;102322.84;5008589;28;20228;-46
2023/09/07 09:43:13;;;;;;;14.55;13.05;;;;;;;23.15;82.04;102328.84;5008469;28;20188;-46
2023/09/07 09:45:39;;;;;;;15.15;13.20;;;;;;;23.34;83.31;102331.22;5020546;28;20514;-46
2023/09/07 09:48:08;;;;;;;16.95;14.00;;;;;;;23.72;83.04;102319.47;5012436;28;20184;-46
2023/09/07 09:50:38;;;;;;;15.63;14.15;;;;;;;23.05;84.80;102330.47;5000491;28;20249;-44
2023/09/07 09:53:07;;;;;;;16.80;15.20;;;;;;;23.18;87.32;102333.28;5016084;28;20313;-47
2023/09/07 09:55:33;;;;;;;16.60;14.82;;;;;;;23.09;87.89;102333.88;5024748;28;20295;-46
2023/09/07 09:57:59;;;;;;;18.27;16.38;;;;;;;22.75;89.22;102336.09;5008416;28;20195;-45
2023/09/07 10:00:25;;;;;;;19.92;18.00;;;;;;;22.52;90.59;102343.03;5010525;28;20299;-44
2023/09/07 10:03:00;;;;;;;20.20;18.20;;;;;;;22.52;92.94;102341.22;5022600;28;20607;-44
2023/09/07 10:05:27;;;;;;;17.75;16.08;;;;;;;23.07;92.28;102335.81;5008323;28;20198;-47
2023/09/07 10:07:52;;;;;;;17.27;15.52;;;;;;;23.26;91.85;102319.94;5008235;28;20511;-45
2023/09/07 10:10:19;;;;;;;16.33;14.82;;;;;;;23.51;90.86;102321.00;5008072;28;20275;-46
2023/09/07 10:12:51;;;;;;;16.88;15.30;;;;;;;23.23;91.81;102326.50;5016864;28;20184;-46
2023/09/07 10:15:27;;;;;;;18.10;16.30;;;;;;;22.91;92.37;102320.41;5016672;28;20184;-46
2023/09/07 10:18:09;;;;;;;17.85;16.15;;;;;;;22.95;93.38;102315.63;5022363;28;20520;-44
2023/09/07 10:20:55;;;;;;;17.70;15.90;;;;;;;23.09;94.02;102326.56;5004698;28;20257;-46
2023/09/07 10:23:21;;;;;;;17.80;16.15;;;;;;;23.39;93.64;102312.63;5008770;28;20180;-45
2023/09/07 10:25:51;;;;;;;17.52;14.70;;;;;;;23.20;91.82;102312.16;5008010;28;20200;-45
2023/09/07 10:28:24;;;;;;;14.73;13.30;;;;;;;24.23;91.00;102303.09;5009149;28;20173;-46
2023/09/07 10:31:04;;;;;;;14.18;12.77;;;;;;;24.57;88.07;102292.41;5028269;28;20333;-45
2023/09/07 10:33:36;;;;;;;14.48;13.00;;;;;;;25.00;84.65;102280.94;5025258;28;20203;-46
2023/09/07 10:36:03;;;;;;;15.05;13.75;;;;;;;23.87;84.29;102290.19;5008364;28;20168;-44
2023/09/07 10:38:34;;;;;;;13.65;12.35;;;;;;;24.67;86.05;102293.47;5011006;28;20322;-47
2023/09/07 10:41:02;;;;;;;13.20;11.90;;;;;;;24.74;84.17;102284.78;5020877;28;20222;-44
2023/09/07 10:43:32;;;;;;;13.63;12.38;;;;;;;24.34;84.60;102279.53;5007774;28;20180;-45
2023/09/07 10:46:00;;;;;;;12.60;11.40;;;;;;;24.43;84.24;102287.91;5014559;28;20681;-44
2023/09/07 10:48:28;;;;;;;10.80;9.80;;;;;;;25.18;82.84;102269.56;5011140;28;20172;-45
2023/09/07 10:50:54;;;;;;;10.00;9.10;;;;;;;25.79;80.76;102256.50;5025273;28;20211;-43
2023/09/07 10:53:27;;;;;;;9.23;8.30;;;;;;;25.84;77.56;102246.00;5020777;28;20210;-45
2023/09/07 10:55:54;;;;;;;9.98;8.02;;;;;;;26.57;74.74;102238.28;5024186;28;20642;-45
2023/09/07 10:58:33;;;;;;;8.88;8.02;;;;;;;26.22;72.41;102222.81;5020802;28;20240;-45
2023/09/07 11:01:00;;;;;;;9.23;8.30;;;;;;;26.47;72.26;102221.63;5030904;28;20198;-46
2023/09/07 11:03:29;;;;;;;9.48;8.68;;;;;;;26.52;71.49;102211.16;5030926;28;20167;-45
2023/09/07 11:06:03;;;;;;;8.60;7.82;;;;;;;26.46;71.11;102202.56;5030720;28;20272;-44
2023/09/07 11:08:29;;;;;;;13.07;9.88;;;;;;;26.38;71.27;102216.91;5021556;28;20259;-44
2023/09/07 11:10:55;;;;;;;10.05;9.05;;;;;;;26.42;71.35;102209.31;4997231;28;20196;-45
2023/09/07 11:13:23;;;;;;;9.02;8.23;;;;;;;26.88;70.65;102197.19;4999816;28;20180;-44
2023/09/07 11:15:49;;;;;;;8.85;8.05;;;;;;;26.85;69.72;102195.56;4996988;28;20193;-44
2023/09/07 11:18:20;;;;;;;9.13;8.32;;;;;;;26.95;69.79;102206.63;4997330;28;20187;-44
2023/09/07 11:20:45;;;;;;;10.45;8.02;;;;;;;27.20;69.11;102194.38;5001274;28;20663;-43